createdAt,value
2016-01-16T00:01:00.635Z,20.87
2016-01-16T00:02:00.246Z,20.84
2016-01-16T00:02:59.812Z,20.88
2016-01-16T00:03:59.815Z,20.87
2016-01-16T00:04:59.817Z,20.82
2016-01-16T00:05:59.820Z,20.84
2016-01-16T00:07:00.056Z,20.85
2016-01-16T00:08:14.372Z,20.77
2016-01-16T00:08:59.843Z,20.8
2016-01-16T00:09:59.878Z,20.8
2016-01-16T00:10:59.864Z,20.82
2016-01-16T00:11:59.868Z,20.82
2016-01-16T00:13:13.996Z,20.79
2016-01-16T00:13:59.918Z,20.79
2016-01-16T00:14:59.937Z,20.77
2016-01-16T00:16:00.001Z,20.72
2016-01-16T00:17:00.145Z,20.72
2016-01-16T00:17:59.928Z,20.73
2016-01-16T00:19:00.493Z,20.74
2016-01-16T00:19:59.950Z,20.79
2016-01-16T00:20:59.953Z,20.74
2016-01-16T00:22:00.377Z,20.73
2016-01-16T00:23:00.161Z,20.73
2016-01-16T00:24:00.179Z,20.7
2016-01-16T00:24:59.979Z,20.79
2016-01-16T00:26:00.012Z,20.72
2016-01-16T00:26:59.500Z,20.76
2016-01-16T00:27:59.987Z,20.7
2016-01-16T00:29:00.021Z,20.7
2016-01-16T00:30:00.056Z,20.74
2016-01-16T00:31:14.340Z,20.74
2016-01-16T00:32:00.046Z,20.66
2016-01-16T00:33:00.236Z,20.74
2016-01-16T00:34:00.285Z,20.82
2016-01-16T00:35:00.054Z,20.66
2016-01-16T00:36:00.306Z,20.59
2016-01-16T00:37:00.309Z,20.59
2016-01-16T00:39:00.283Z,20.58
2016-01-16T00:40:00.098Z,20.67
2016-01-16T00:42:00.339Z,20.57
2016-01-16T00:43:00.138Z,20.59
2016-01-16T00:44:00.360Z,20.54
2016-01-16T00:45:00.128Z,20.55
2016-01-16T00:46:00.318Z,20.51
2016-01-16T00:47:00.555Z,20.58
2016-01-16T00:48:00.167Z,20.58
2016-01-16T00:49:14.280Z,20.55
2016-01-16T00:50:00.170Z,20.55
2016-01-16T00:51:00.408Z,20.52
2016-01-16T00:52:00.207Z,20.57
2016-01-16T00:53:00.413Z,20.55
2016-01-16T00:54:00.697Z,20.51
2016-01-16T00:55:00.419Z,20.52
2016-01-16T00:56:00.234Z,20.58
2016-01-16T00:57:00.252Z,20.55
2016-01-16T00:58:14.348Z,20.54
2016-01-16T00:59:00.242Z,20.51
2016-01-16T01:00:00.448Z,20.42
2016-01-16T01:01:14.373Z,20.51
2016-01-16T01:02:00.484Z,20.42
2016-01-16T01:03:00.519Z,20.42
2016-01-16T01:04:00.302Z,20.43
2016-01-16T01:05:00.525Z,20.41
2016-01-16T01:06:00.512Z,20.39
2016-01-16T01:07:00.312Z,20.38
2016-01-16T01:08:00.548Z,20.42
2016-01-16T01:09:00.348Z,20.41
2016-01-16T01:10:00.351Z,20.47
2016-01-16T01:11:14.431Z,20.47
2016-01-16T01:12:00.559Z,20.47
2016-01-16T01:13:00.390Z,20.47
2016-01-16T01:14:00.362Z,20.38
2016-01-16T01:15:00.599Z,20.43
2016-01-16T01:16:14.477Z,20.42
2016-01-16T01:17:00.414Z,20.38
2016-01-16T01:18:00.433Z,20.32
2016-01-16T01:19:00.404Z,20.38
2016-01-16T01:20:14.503Z,20.38
2016-01-16T01:21:00.441Z,20.29
2016-01-16T01:22:00.303Z,20.41
2016-01-16T01:23:00.447Z,20.35
2016-01-16T01:24:00.449Z,20.35
2016-01-16T01:25:00.436Z,20.33
2016-01-16T01:26:00.657Z,20.36
2016-01-16T01:27:00.489Z,20.36
2016-01-16T01:28:00.491Z,20.38
2016-01-16T01:29:00.510Z,20.39
2016-01-16T01:30:00.793Z,20.41
2016-01-16T01:31:00.499Z,20.33
2016-01-16T01:32:00.518Z,20.41
2016-01-16T01:33:00.504Z,20.33
2016-01-16T01:34:00.555Z,20.35
2016-01-16T01:35:00.760Z,20.35
2016-01-16T01:36:00.544Z,20.39
2016-01-16T01:37:00.528Z,20.39
2016-01-16T01:38:00.698Z,20.35
2016-01-16T01:39:00.765Z,20.41
2016-01-16T01:40:14.821Z,20.36
2016-01-16T01:42:00.638Z,20.33
2016-01-16T01:43:00.579Z,20.33
2016-01-16T01:44:00.629Z,20.35
2016-01-16T01:45:00.646Z,20.35
2016-01-16T01:46:00.618Z,20.26
2016-01-16T01:47:01.151Z,20.38
2016-01-16T01:48:01.062Z,20.36
2016-01-16T01:51:01.087Z,20.23
2016-01-16T01:52:00.654Z,20.28
2016-01-16T01:53:14.781Z,20.29
2016-01-16T01:54:00.909Z,20.18
2016-01-16T01:56:00.898Z,20.24
2016-01-16T01:57:00.229Z,20.26
2016-01-16T01:58:00.716Z,20.23
2016-01-16T01:59:00.703Z,20.26
2016-01-16T02:00:01.315Z,20.26
2016-01-16T02:01:00.739Z,20.28
2016-01-16T02:02:00.743Z,20.21
2016-01-16T02:03:00.933Z,20.21
2016-01-16T02:04:00.732Z,20.18
2016-01-16T02:05:00.735Z,20.2
2016-01-16T02:06:00.753Z,20.2
2016-01-16T02:07:00.763Z,20.17
2016-01-16T02:08:00.787Z,20.17
2016-01-16T02:09:00.748Z,20.18
2016-01-16T02:10:00.990Z,20.17
2016-01-16T02:11:00.779Z,20.14
2016-01-16T02:12:00.777Z,20.2
2016-01-16T02:13:00.948Z,20.2
2016-01-16T02:14:00.775Z,20.14
2016-01-16T02:15:00.774Z,20.13
2016-01-16T02:16:00.757Z,20.18
2016-01-16T02:17:00.774Z,20.2
2016-01-16T02:18:00.978Z,20.18
2016-01-16T02:19:00.807Z,20.13
2016-01-16T02:20:14.902Z,20.13
2016-01-16T02:21:00.794Z,20.16
2016-01-16T02:22:01.248Z,20.1
2016-01-16T02:23:00.829Z,20.11
2016-01-16T02:24:00.831Z,20.13
2016-01-16T02:25:00.834Z,20.11
2016-01-16T02:26:15.008Z,20.17
2016-01-16T02:27:00.871Z,20.11
2016-01-16T02:28:00.857Z,20.1
2016-01-16T02:29:15.157Z,20.13
2016-01-16T02:30:01.066Z,20.08
2016-01-16T02:31:00.866Z,20.06
2016-01-16T02:32:00.899Z,20.1
2016-01-16T02:34:00.936Z,20.13
2016-01-16T02:35:00.626Z,20.08
2016-01-16T02:36:01.082Z,20.06
2016-01-16T02:37:15.023Z,20.02
2016-01-16T02:39:00.951Z,20.05
2016-01-16T02:40:01.156Z,20.02
2016-01-16T02:41:01.002Z,20.06
2016-01-16T02:42:00.974Z,19.98
2016-01-16T02:43:01.179Z,19.98
2016-01-16T02:44:15.276Z,20.06
2016-01-16T02:45:01.170Z,20.02
2016-01-16T02:46:01.781Z,20.05
2016-01-16T02:47:01.206Z,19.96
2016-01-16T02:48:01.865Z,19.99
2016-01-16T02:49:01.039Z,19.94
2016-01-16T02:50:01.245Z,20.01
2016-01-16T02:51:01.013Z,19.88
2016-01-16T02:52:01.031Z,19.98
2016-01-16T02:53:01.269Z,19.96
2016-01-16T02:54:01.475Z,20.08
2016-01-16T02:55:15.759Z,19.91
2016-01-16T02:56:15.167Z,19.98
2016-01-16T02:57:01.264Z,20.08
2016-01-16T02:58:01.111Z,20.03
2016-01-16T02:59:01.301Z,19.96
2016-01-16T03:00:01.117Z,19.95
2016-01-16T03:01:01.103Z,19.98
2016-01-16T03:02:01.153Z,19.99
2016-01-16T03:03:01.124Z,20.01
2016-01-16T03:04:01.518Z,19.94
2016-01-16T03:05:01.146Z,19.92
2016-01-16T03:06:00.648Z,19.92
2016-01-16T03:07:01.135Z,19.95
2016-01-16T03:08:01.185Z,19.98
2016-01-16T03:09:01.766Z,19.96
2016-01-16T03:11:01.410Z,19.88
2016-01-16T03:12:15.274Z,19.86
2016-01-16T03:13:01.243Z,19.96
2016-01-16T03:14:01.214Z,19.86
2016-01-16T03:15:01.185Z,19.81
2016-01-16T03:16:01.626Z,19.92
2016-01-16T03:17:01.223Z,19.94
2016-01-16T03:18:01.163Z,19.87
2016-01-16T03:19:15.352Z,19.88
2016-01-16T03:21:01.483Z,19.87
2016-01-16T03:22:00.283Z,19.96
2016-01-16T03:23:01.255Z,19.92
2016-01-16T03:24:01.305Z,19.91
2016-01-16T03:25:01.885Z,19.94
2016-01-16T03:26:01.482Z,19.92
2016-01-16T03:27:01.282Z,19.94
2016-01-16T03:28:01.284Z,19.88
2016-01-16T03:29:15.427Z,19.8
2016-01-16T03:31:01.339Z,19.91
2016-01-16T03:32:01.327Z,19.83
2016-01-16T03:33:15.657Z,19.81
2016-01-16T03:34:01.566Z,19.88
2016-01-16T03:35:01.569Z,19.87
2016-01-16T03:36:01.353Z,19.84
2016-01-16T03:37:01.559Z,19.8
2016-01-16T03:38:01.577Z,19.83
2016-01-16T03:39:01.549Z,19.78
2016-01-16T03:40:01.567Z,19.8
2016-01-16T03:42:02.229Z,19.78
2016-01-16T03:43:15.498Z,19.83
2016-01-16T03:44:15.718Z,19.8
2016-01-16T03:45:01.628Z,19.83
2016-01-16T03:46:01.458Z,19.84
2016-01-16T03:47:01.665Z,19.77
2016-01-16T03:48:01.682Z,19.81
2016-01-16T03:49:15.545Z,19.8
2016-01-16T03:50:01.454Z,19.81
2016-01-16T03:51:01.472Z,19.8
2016-01-16T03:52:01.459Z,19.74
2016-01-16T03:53:01.884Z,19.77
2016-01-16T03:54:01.728Z,19.76
2016-01-16T03:55:01.480Z,19.73
2016-01-16T03:56:01.498Z,19.76
2016-01-16T03:57:01.033Z,19.66
2016-01-16T03:58:01.692Z,19.77
2016-01-16T03:59:01.539Z,19.73
2016-01-16T04:00:01.542Z,19.73
2016-01-16T04:01:01.575Z,19.66
2016-01-16T04:02:01.547Z,19.73
2016-01-16T04:03:01.768Z,19.65
2016-01-16T04:04:01.552Z,19.73
2016-01-16T04:05:01.992Z,19.66
2016-01-16T04:06:01.760Z,19.69
2016-01-16T04:07:01.263Z,19.74
2016-01-16T04:08:01.578Z,19.73
2016-01-16T04:09:01.659Z,19.69
2016-01-16T04:11:01.634Z,19.73
2016-01-16T04:12:01.637Z,19.66
2016-01-16T04:13:01.639Z,19.69
2016-01-16T04:14:01.642Z,19.66
2016-01-16T04:15:01.660Z,19.66
2016-01-16T04:16:01.881Z,19.65
2016-01-16T04:17:01.650Z,19.63
2016-01-16T04:18:15.809Z,19.62
2016-01-16T04:19:01.656Z,19.66
2016-01-16T04:20:00.706Z,19.65
2016-01-16T04:21:01.895Z,19.65
2016-01-16T04:22:01.680Z,19.66
2016-01-16T04:23:01.698Z,19.59
2016-01-16T04:25:01.891Z,19.62
2016-01-16T04:26:01.706Z,19.63
2016-01-16T04:27:01.709Z,19.63
2016-01-16T04:28:01.946Z,19.68
2016-01-16T04:29:01.746Z,19.65
2016-01-16T04:30:01.733Z,19.68
2016-01-16T04:31:01.797Z,19.63
2016-01-16T04:32:15.848Z,19.65
2016-01-16T04:33:01.773Z,19.65
2016-01-16T04:34:01.791Z,19.62
2016-01-16T04:35:01.794Z,19.62
2016-01-16T04:36:01.843Z,19.65
2016-01-16T04:37:01.811Z,19.63
2016-01-16T04:38:01.830Z,19.62
2016-01-16T04:39:16.102Z,19.61
2016-01-16T04:40:01.805Z,19.61
2016-01-16T04:41:01.838Z,19.63
2016-01-16T04:42:01.841Z,19.63
2016-01-16T04:43:01.891Z,19.55
2016-01-16T04:44:01.878Z,19.54
2016-01-16T04:45:02.225Z,19.59
2016-01-16T04:46:01.837Z,19.56
2016-01-16T04:47:01.872Z,19.63
2016-01-16T04:48:02.061Z,19.59
2016-01-16T04:49:01.891Z,19.59
2016-01-16T04:50:02.082Z,19.59
2016-01-16T04:51:01.897Z,19.58
2016-01-16T04:52:01.885Z,19.59
2016-01-16T04:53:02.106Z,19.54
2016-01-16T04:54:01.906Z,19.54
2016-01-16T04:56:01.943Z,19.55
2016-01-16T04:57:01.929Z,19.58
2016-01-16T04:58:01.932Z,19.5
2016-01-16T04:59:02.138Z,19.55
2016-01-16T05:00:01.485Z,19.55
2016-01-16T05:01:01.971Z,19.5
2016-01-16T05:02:02.022Z,19.43
2016-01-16T05:03:01.977Z,19.48
2016-01-16T05:04:01.996Z,19.48
2016-01-16T05:05:02.217Z,19.48
2016-01-16T05:06:16.096Z,19.47
2016-01-16T05:07:01.988Z,19.51
2016-01-16T05:08:02.054Z,19.46
2016-01-16T05:09:02.229Z,19.47
2016-01-16T05:10:02.043Z,19.4
2016-01-16T05:11:02.046Z,19.44
2016-01-16T05:12:02.252Z,19.46
2016-01-16T05:13:02.052Z,19.43
2016-01-16T05:14:02.070Z,19.48
2016-01-16T05:15:02.260Z,19.43
2016-01-16T05:16:02.075Z,19.41
2016-01-16T05:17:02.062Z,19.44
2016-01-16T05:18:02.299Z,19.44
2016-01-16T05:19:02.068Z,19.47
2016-01-16T05:20:16.196Z,19.48
2016-01-16T05:21:02.104Z,19.46
2016-01-16T05:22:02.107Z,19.48
2016-01-16T05:23:02.376Z,19.43
2016-01-16T05:24:02.112Z,19.4
2016-01-16T05:25:02.131Z,19.46
2016-01-16T05:26:02.150Z,19.43
2016-01-16T05:27:02.183Z,19.43
2016-01-16T05:28:02.125Z,19.41
2016-01-16T05:29:02.162Z,19.48
2016-01-16T05:30:02.170Z,19.37
2016-01-16T05:31:02.204Z,19.33
2016-01-16T05:32:02.207Z,19.41
2016-01-16T05:33:16.506Z,19.32
2016-01-16T05:34:02.178Z,19.43
2016-01-16T05:35:02.196Z,19.31
2016-01-16T05:36:02.433Z,19.39
2016-01-16T05:37:02.405Z,19.4
2016-01-16T05:38:02.455Z,19.37
2016-01-16T05:39:02.427Z,19.41
2016-01-16T05:40:02.241Z,19.41
2016-01-16T05:41:02.650Z,19.44
2016-01-16T05:42:02.232Z,19.55
2016-01-16T05:43:02.266Z,19.55
2016-01-16T05:44:02.487Z,19.58
2016-01-16T05:45:02.271Z,19.5
2016-01-16T05:46:02.274Z,19.61
2016-01-16T05:48:16.404Z,19.62
2016-01-16T05:49:16.406Z,19.63
2016-01-16T05:50:02.331Z,19.74
2016-01-16T05:51:02.303Z,19.69
2016-01-16T05:52:02.337Z,19.74
2016-01-16T05:53:02.340Z,19.71
2016-01-16T05:54:02.358Z,19.74
2016-01-16T05:55:01.828Z,19.77
2016-01-16T05:56:02.550Z,19.84
2016-01-16T05:57:02.366Z,19.84
2016-01-16T05:58:02.353Z,19.88
2016-01-16T05:59:02.543Z,19.81
2016-01-16T06:00:02.359Z,19.91
2016-01-16T06:01:02.392Z,19.88
2016-01-16T06:02:02.629Z,19.95
2016-01-16T06:03:01.898Z,20.01
2016-01-16T06:04:02.384Z,19.98
2016-01-16T06:05:02.622Z,19.91
2016-01-16T06:06:02.656Z,19.98
2016-01-16T06:07:02.471Z,19.99
2016-01-16T06:08:02.473Z,20.02
2016-01-16T06:09:02.430Z,20.06
2016-01-16T06:10:02.447Z,20.03
2016-01-16T06:11:02.670Z,20.1
2016-01-16T06:12:16.563Z,20.16
2016-01-16T06:13:02.503Z,20.17
2016-01-16T06:14:02.911Z,20.17
2016-01-16T06:15:02.492Z,20.26
2016-01-16T06:16:02.494Z,20.24
2016-01-16T06:17:02.919Z,20.28
2016-01-16T06:18:02.736Z,20.35
2016-01-16T06:19:16.628Z,20.26
2016-01-16T06:20:04.943Z,20.21
2016-01-16T06:21:02.587Z,20.41
2016-01-16T06:22:02.558Z,20.38
2016-01-16T06:23:02.546Z,20.39
2016-01-16T06:24:05.596Z,20.36
2016-01-16T06:25:02.566Z,20.35
2016-01-16T06:26:02.601Z,20.48
2016-01-16T06:27:02.603Z,20.42
2016-01-16T06:28:02.762Z,20.39
2016-01-16T06:29:02.140Z,20.51
2016-01-16T06:30:02.596Z,20.51
2016-01-16T06:31:02.832Z,20.52
2016-01-16T06:32:02.663Z,20.55
2016-01-16T06:33:02.823Z,20.62
2016-01-16T06:34:16.965Z,20.69
2016-01-16T06:35:02.843Z,20.69
2016-01-16T06:36:02.174Z,20.67
2016-01-16T06:37:02.662Z,20.74
2016-01-16T06:38:02.696Z,20.66
2016-01-16T06:39:02.667Z,20.76
2016-01-16T06:40:02.684Z,20.79
2016-01-16T06:41:02.735Z,20.85
2016-01-16T06:42:02.737Z,20.74
2016-01-16T06:43:02.709Z,20.82
2016-01-16T06:44:02.758Z,20.79
2016-01-16T06:45:02.745Z,20.91
2016-01-16T06:46:02.748Z,20.95
2016-01-16T06:47:02.782Z,20.94
2016-01-16T06:48:02.864Z,21.01
2016-01-16T06:49:03.178Z,21.01
2016-01-16T06:50:02.961Z,21.01
2016-01-16T06:51:03.011Z,21.03
2016-01-16T06:52:02.811Z,21.03
2016-01-16T06:53:03.017Z,21.03
2016-01-16T06:54:02.816Z,21.03
2016-01-16T06:55:02.383Z,21.04
2016-01-16T06:56:02.838Z,21.06
2016-01-16T06:57:02.840Z,21.12
2016-01-16T06:58:02.843Z,21.12
2016-01-16T06:59:02.861Z,21.01
2016-01-16T07:00:03.099Z,21.16
2016-01-16T07:01:02.867Z,21.14
2016-01-16T07:02:02.916Z,21.19
2016-01-16T07:03:02.919Z,21.19
2016-01-16T07:04:02.906Z,21.24
2016-01-16T07:05:02.910Z,21.22
2016-01-16T07:06:02.943Z,21.27
2016-01-16T07:07:03.149Z,21.27
2016-01-16T07:08:03.168Z,21.35
2016-01-16T07:09:02.951Z,21.29
2016-01-16T07:10:02.954Z,21.32
2016-01-16T07:11:02.973Z,21.35
2016-01-16T07:12:17.256Z,21.4
2016-01-16T07:13:02.978Z,21.4
2016-01-16T07:14:03.246Z,21.4
2016-01-16T07:15:17.124Z,21.43
2016-01-16T07:16:02.861Z,21.46
2016-01-16T07:17:03.020Z,21.46
2016-01-16T07:18:03.226Z,21.52
2016-01-16T07:19:03.072Z,21.47
2016-01-16T07:20:03.043Z,21.52
2016-01-16T07:21:03.061Z,21.47
2016-01-16T07:22:03.081Z,21.47
2016-01-16T07:23:03.098Z,21.46
2016-01-16T07:24:03.086Z,21.54
2016-01-16T07:25:03.073Z,21.54
2016-01-16T07:26:03.341Z,21.61
2016-01-16T07:27:03.125Z,21.61
2016-01-16T07:28:03.314Z,21.65
2016-01-16T07:29:03.130Z,21.68
2016-01-16T07:30:03.165Z,21.65
2016-01-16T07:31:03.573Z,21.67
2016-01-16T07:32:03.155Z,21.74
2016-01-16T07:33:17.282Z,21.69
2016-01-16T07:34:03.800Z,21.75
2016-01-16T07:35:03.616Z,21.68
2016-01-16T07:36:03.181Z,21.67
2016-01-16T07:37:03.214Z,21.69
2016-01-16T07:38:03.202Z,21.68
2016-01-16T07:39:03.251Z,21.77
2016-01-16T07:40:03.254Z,21.83
2016-01-16T07:41:03.257Z,21.75
2016-01-16T07:42:03.259Z,21.79
2016-01-16T07:43:03.262Z,21.79
2016-01-16T07:44:03.296Z,21.83
2016-01-16T07:45:03.283Z,21.84
2016-01-16T07:46:03.318Z,21.77
2016-01-16T07:47:03.304Z,21.83
2016-01-16T07:48:03.510Z,21.82
2016-01-16T07:49:03.529Z,21.83
2016-01-16T07:50:03.328Z,21.83
2016-01-16T07:51:03.377Z,21.8
2016-01-16T07:52:03.567Z,21.84
2016-01-16T07:53:03.379Z,21.82
2016-01-16T07:55:03.370Z,21.79
2016-01-16T07:56:04.013Z,21.82
2016-01-16T07:57:03.626Z,21.86
2016-01-16T07:58:03.643Z,21.94
2016-01-16T07:59:03.443Z,21.9
2016-01-16T08:00:03.445Z,21.9
2016-01-16T08:01:03.636Z,21.98
2016-01-16T08:02:03.295Z,21.92
2016-01-16T08:04:17.569Z,21.98
2016-01-16T08:05:03.522Z,22
2016-01-16T08:06:17.606Z,21.94
2016-01-16T08:07:03.528Z,22.02
2016-01-16T08:08:03.686Z,22.02
2016-01-16T08:09:03.923Z,21.98
2016-01-16T08:10:03.535Z,21.94
2016-01-16T08:11:03.538Z,21.96
2016-01-16T08:12:03.556Z,22.03
2016-01-16T08:13:03.528Z,21.96
2016-01-16T08:14:03.577Z,22
2016-01-16T08:15:03.580Z,22.06
2016-01-16T08:16:03.801Z,22.05
2016-01-16T08:17:03.616Z,22.05
2016-01-16T08:18:03.588Z,22
2016-01-16T08:19:03.622Z,22.06
2016-01-16T08:20:03.640Z,22.02
2016-01-16T08:21:03.612Z,22.06
2016-01-16T08:22:03.629Z,22.06
2016-01-16T08:23:03.633Z,22.03
2016-01-16T08:24:03.635Z,22.07
2016-01-16T08:25:03.670Z,22.07
2016-01-16T08:26:04.016Z,22.07
2016-01-16T08:27:03.707Z,22.17
2016-01-16T08:28:03.678Z,22.17
2016-01-16T08:29:03.695Z,22.07
2016-01-16T08:30:03.698Z,22.03
2016-01-16T08:31:03.733Z,22.15
2016-01-16T08:32:03.720Z,22.09
2016-01-16T08:33:03.770Z,22.17
2016-01-16T08:34:17.850Z,22.18
2016-01-16T08:35:03.759Z,22.2
2016-01-16T08:36:03.981Z,22.15
2016-01-16T08:37:18.077Z,22.15
2016-01-16T08:38:03.298Z,22.15
2016-01-16T08:40:17.914Z,22.15
2016-01-16T08:41:04.042Z,22.22
2016-01-16T08:42:03.825Z,22.21
2016-01-16T08:43:03.875Z,22.17
2016-01-16T08:44:03.877Z,22.17
2016-01-16T08:45:03.833Z,22.21
2016-01-16T08:46:03.383Z,22.22
2016-01-16T08:47:03.856Z,22.2
2016-01-16T08:48:03.874Z,22.15
2016-01-16T08:49:03.876Z,22.18
2016-01-16T08:50:04.145Z,22.17
2016-01-16T08:51:03.912Z,22.18
2016-01-16T08:52:04.104Z,22.17
2016-01-16T08:53:03.950Z,22.21
2016-01-16T08:54:04.125Z,22.21
2016-01-16T08:55:04.173Z,22.17
2016-01-16T08:56:03.942Z,22.22
2016-01-16T08:57:03.726Z,22.21
2016-01-16T08:58:04.214Z,22.21
2016-01-16T08:59:03.982Z,22.18
2016-01-16T09:00:04.000Z,22.17
2016-01-16T09:01:04.034Z,22.21
2016-01-16T09:02:03.995Z,22.18
2016-01-16T09:03:04.044Z,22.14
2016-01-16T09:04:04.016Z,22.25
2016-01-16T09:05:04.253Z,22.17
2016-01-16T09:06:04.286Z,22.21
2016-01-16T09:07:04.055Z,22.2
2016-01-16T09:08:04.088Z,22.17
2016-01-16T09:09:18.185Z,22.17
2016-01-16T09:10:04.094Z,22.21
2016-01-16T09:11:04.113Z,22.27
2016-01-16T09:12:04.099Z,22.2
2016-01-16T09:13:04.118Z,22.27
2016-01-16T09:14:04.121Z,22.25
2016-01-16T09:15:04.139Z,22.24
2016-01-16T09:16:04.157Z,22.31
2016-01-16T09:17:18.270Z,22.42
2016-01-16T09:18:04.566Z,22.36
2016-01-16T09:19:04.162Z,22.43
2016-01-16T09:20:04.165Z,22.45
2016-01-16T09:21:04.215Z,22.43
2016-01-16T09:22:04.202Z,22.43
2016-01-16T09:23:04.440Z,22.51
2016-01-16T09:25:04.226Z,22.49
2016-01-16T09:26:04.667Z,22.47
2016-01-16T09:27:03.779Z,22.51
2016-01-16T09:28:04.265Z,22.52
2016-01-16T09:29:04.283Z,22.54
2016-01-16T09:30:04.302Z,22.52
2016-01-16T09:31:04.039Z,22.54
2016-01-16T09:32:04.308Z,22.54
2016-01-16T09:33:04.544Z,22.55
2016-01-16T09:34:04.328Z,22.49
2016-01-16T09:35:17.958Z,22.52
2016-01-16T09:36:04.568Z,22.55
2016-01-16T09:37:04.352Z,22.51
2016-01-16T09:38:04.370Z,22.51
2016-01-16T09:39:04.405Z,22.51
2016-01-16T09:40:04.375Z,22.58
2016-01-16T09:41:04.394Z,22.52
2016-01-16T09:42:04.414Z,22.54
2016-01-16T09:43:04.432Z,22.51
2016-01-16T09:44:04.435Z,22.58
2016-01-16T09:45:04.438Z,22.65
2016-01-16T09:46:04.832Z,22.58
2016-01-16T09:47:04.646Z,22.61
2016-01-16T09:48:04.384Z,22.62
2016-01-16T09:49:04.465Z,22.61
2016-01-16T09:50:04.483Z,22.65
2016-01-16T09:51:04.673Z,22.62
2016-01-16T09:52:04.504Z,22.61
2016-01-16T09:53:04.741Z,22.58
2016-01-16T09:54:18.150Z,22.7
2016-01-16T09:55:04.762Z,22.64
2016-01-16T09:56:04.781Z,22.61
2016-01-16T09:57:04.578Z,22.65
2016-01-16T09:58:04.548Z,22.67
2016-01-16T09:59:04.114Z,22.62
2016-01-16T10:00:04.601Z,22.65
2016-01-16T10:01:04.807Z,22.61
2016-01-16T10:02:04.622Z,22.62
2016-01-16T10:03:04.812Z,22.68
2016-01-16T10:04:04.628Z,22.61
2016-01-16T10:05:04.646Z,22.68
2016-01-16T10:06:04.867Z,22.7
2016-01-16T10:07:04.698Z,22.67
2016-01-16T10:08:04.669Z,22.67
2016-01-16T10:09:04.703Z,22.73
2016-01-16T10:10:04.675Z,22.77
2016-01-16T10:11:04.709Z,22.73
2016-01-16T10:12:04.696Z,22.72
2016-01-16T10:13:05.153Z,22.79
2016-01-16T10:14:04.233Z,22.8
2016-01-16T10:15:04.767Z,22.79
2016-01-16T10:16:04.738Z,22.83
2016-01-16T10:17:04.757Z,22.75
2016-01-16T10:18:04.759Z,22.76
2016-01-16T10:19:05.387Z,22.77
2016-01-16T10:20:04.797Z,22.8
2016-01-16T10:21:04.784Z,22.79
2016-01-16T10:22:04.834Z,22.77
2016-01-16T10:23:04.822Z,22.82
2016-01-16T10:24:19.152Z,22.8
2016-01-16T10:25:04.858Z,22.82
2016-01-16T10:26:05.048Z,22.83
2016-01-16T10:27:04.864Z,22.82
2016-01-16T10:28:04.866Z,22.82
2016-01-16T10:29:04.900Z,22.8
2016-01-16T10:31:04.922Z,22.82
2016-01-16T10:32:04.924Z,22.83
2016-01-16T10:33:33.114Z,22.83
2016-01-16T10:34:19.633Z,22.92
2016-01-16T10:38:17.566Z,22.91
2016-01-16T10:39:29.444Z,22.88
2016-01-16T10:40:14.946Z,23.01
2016-01-16T10:41:28.683Z,22.95
2016-01-16T10:42:28.686Z,22.95
2016-01-16T10:43:28.877Z,23
2016-01-16T10:44:15.004Z,23.02
2016-01-16T10:45:28.928Z,22.95
2016-01-16T10:47:28.934Z,23.01
2016-01-16T10:48:28.936Z,22.98
2016-01-16T10:49:15.452Z,23
2016-01-16T10:50:15.939Z,22.94
2016-01-16T10:51:28.958Z,23.01
2016-01-16T10:52:15.930Z,23.04
2016-01-16T10:53:28.995Z,23.04
2016-01-16T10:57:16.350Z,23.09
2016-01-16T10:58:15.758Z,23.07
2016-01-16T10:59:43.965Z,23.05
2016-01-16T11:00:15.592Z,23.09
2016-01-16T11:01:29.064Z,23.04
2016-01-16T11:02:29.505Z,23.1
2016-01-16T11:03:28.507Z,23.12
2016-01-16T11:04:29.728Z,23.09
2016-01-16T11:05:29.138Z,23.1
2016-01-16T11:06:16.484Z,23.12
2016-01-16T11:07:29.347Z,23.12
2016-01-16T11:10:46.776Z,23.15
2016-01-16T11:13:33.061Z,23.07
2016-01-16T11:17:01.055Z,23.1
2016-01-16T11:20:46.960Z,23.15
2016-01-16T11:21:53.253Z,23.16
2016-01-16T11:23:48.020Z,23.17
2016-01-16T11:24:32.692Z,23.22
2016-01-16T11:25:32.692Z,23.16
2016-01-16T11:26:32.537Z,23.22
2016-01-16T11:27:46.821Z,23.16
2016-01-16T11:28:32.540Z,23.15
2016-01-16T11:29:32.541Z,23.15
2016-01-16T11:30:32.543Z,23.1
2016-01-16T11:31:33.827Z,23.19
2016-01-16T11:32:46.672Z,23.15
2016-01-16T11:33:32.160Z,23.13
2016-01-16T11:34:32.584Z,23.12
2016-01-16T11:35:32.791Z,23.04
2016-01-16T11:36:32.606Z,23.05
2016-01-16T11:37:32.656Z,23.01
2016-01-16T11:38:33.252Z,23.04
2016-01-16T11:39:32.645Z,23.04
2016-01-16T11:40:46.960Z,23
2016-01-16T11:42:32.904Z,22.97
2016-01-16T11:44:32.221Z,23
2016-01-16T11:45:32.959Z,22.98
2016-01-16T11:46:46.867Z,22.91
2016-01-16T11:47:32.729Z,22.88
2016-01-16T11:48:32.857Z,23
2016-01-16T11:49:32.767Z,23.02
2016-01-16T11:50:32.988Z,23.02
2016-01-16T11:51:46.865Z,22.95
2016-01-16T11:52:32.742Z,22.97
2016-01-16T11:53:46.887Z,22.97
2016-01-16T11:54:32.795Z,22.86
2016-01-16T11:55:32.861Z,22.83
2016-01-16T11:56:33.067Z,22.97
2016-01-16T11:57:46.929Z,22.9
2016-01-16T11:58:32.838Z,22.92
2016-01-16T11:59:32.825Z,22.85
2016-01-16T12:00:32.578Z,22.83
2016-01-16T12:01:33.127Z,22.79
2016-01-16T12:02:32.911Z,22.83
2016-01-16T12:03:33.305Z,22.86
2016-01-16T12:04:32.916Z,22.82
2016-01-16T12:05:32.811Z,22.79
2016-01-16T12:06:33.156Z,22.82
2016-01-16T12:07:33.331Z,22.83
2016-01-16T12:08:33.412Z,22.82
2016-01-16T12:09:32.977Z,22.76
2016-01-16T12:11:32.999Z,22.77
2016-01-16T12:12:32.985Z,22.68
2016-01-16T12:13:33.113Z,22.77
2016-01-16T12:14:33.646Z,22.76
2016-01-16T12:15:33.025Z,22.67
2016-01-16T12:16:32.543Z,22.75
2016-01-16T12:17:33.327Z,22.67
2016-01-16T12:18:33.454Z,22.64
2016-01-16T12:19:32.645Z,22.65
2016-01-16T12:20:33.288Z,22.62
2016-01-16T12:21:33.085Z,22.67
2016-01-16T12:23:47.171Z,22.65
2016-01-16T12:24:33.171Z,22.68
2016-01-16T12:25:33.471Z,22.6
2016-01-16T12:26:33.130Z,22.57
2016-01-16T12:27:33.367Z,22.62
2016-01-16T12:28:33.245Z,22.61
2016-01-16T12:29:47.469Z,22.57
2016-01-16T12:30:33.360Z,22.58
2016-01-16T12:31:33.409Z,22.52
2016-01-16T12:32:47.259Z,22.57
2016-01-16T12:33:47.309Z,22.51
2016-01-16T12:34:33.184Z,22.49
2016-01-16T12:35:33.201Z,22.49
2016-01-16T12:36:33.220Z,22.51
2016-01-16T12:37:47.569Z,22.47
2016-01-16T12:39:33.259Z,22.49
2016-01-16T12:40:33.480Z,22.54
2016-01-16T12:41:33.280Z,22.49
2016-01-16T12:43:33.300Z,22.4
2016-01-16T12:44:33.710Z,22.49
2016-01-16T12:45:47.402Z,22.35
2016-01-16T12:46:33.293Z,22.35
2016-01-16T12:47:33.343Z,22.37
2016-01-16T12:48:33.752Z,22.37
2016-01-16T12:49:33.583Z,22.37
2016-01-16T12:50:47.447Z,22.45
2016-01-16T12:51:33.354Z,22.42
2016-01-16T12:52:33.622Z,22.33
2016-01-16T12:53:47.471Z,22.37
2016-01-16T12:54:33.408Z,22.45
2016-01-16T12:55:47.524Z,22.42
2016-01-16T12:56:33.399Z,22.33
2016-01-16T12:57:34.073Z,22.37
2016-01-16T12:58:32.966Z,22.27
2016-01-16T12:59:33.438Z,22.39
2016-01-16T13:00:33.690Z,22.36
2016-01-16T13:01:47.774Z,22.35
2016-01-16T13:02:33.444Z,22.31
2016-01-16T13:03:47.558Z,22.33
2016-01-16T13:04:33.448Z,22.36
2016-01-16T13:05:33.529Z,22.36
2016-01-16T13:06:33.720Z,22.28
2016-01-16T13:07:33.519Z,22.35
2016-01-16T13:09:33.243Z,22.39
2016-01-16T13:10:33.543Z,22.39
2016-01-16T13:12:33.548Z,22.37
2016-01-16T13:13:33.567Z,22.37
2016-01-16T13:15:33.791Z,22.36
2016-01-16T13:16:47.890Z,22.42
2016-01-16T13:17:33.828Z,22.42
2016-01-16T13:18:33.627Z,22.4
2016-01-16T13:19:33.849Z,22.4
2016-01-16T13:20:33.648Z,22.42
2016-01-16T13:21:33.667Z,22.37
2016-01-16T13:22:33.873Z,22.43
2016-01-16T13:23:33.687Z,22.35
2016-01-16T13:24:33.675Z,22.35
2016-01-16T13:25:47.993Z,22.39
2016-01-16T13:27:33.713Z,22.42
2016-01-16T13:28:33.701Z,22.39
2016-01-16T13:30:33.722Z,22.46
2016-01-16T13:31:33.959Z,22.49
2016-01-16T13:32:33.977Z,22.46
2016-01-16T13:33:33.777Z,22.43
2016-01-16T13:34:47.892Z,22.51
2016-01-16T13:35:34.001Z,22.52
2016-01-16T13:36:48.084Z,22.49
2016-01-16T13:37:33.803Z,22.52
2016-01-16T13:38:33.790Z,22.49
2016-01-16T13:39:33.793Z,22.55
2016-01-16T13:40:33.890Z,22.47
2016-01-16T13:41:34.033Z,22.49
2016-01-16T13:42:33.832Z,22.51
2016-01-16T13:43:33.960Z,22.6
2016-01-16T13:44:34.041Z,22.58
2016-01-16T13:45:34.497Z,22.64